createdAt,value
2023-01-12T01:45:12.450Z,6.25
2023-01-12T01:48:02.451Z,6.19
2023-01-12T01:51:08.202Z,6.06
2023-01-12T01:55:15.209Z,6.13
2023-01-12T01:58:11.173Z,6.05
2023-01-12T02:00:42.273Z,6.07
2023-01-12T02:03:12.106Z,5.97
2023-01-12T02:05:44.841Z,5.97
2023-01-12T02:08:23.093Z,5.98
2023-01-12T02:10:53.284Z,5.90
2023-01-12T02:13:42.612Z,5.92
2023-01-12T02:16:23.336Z,5.77
2023-01-12T02:19:04.605Z,5.86
2023-01-12T02:21:59.186Z,5.79
2023-01-12T02:26:13.463Z,5.81
2023-01-12T02:29:42.763Z,5.77
2023-01-12T02:32:20.361Z,5.69
2023-01-12T02:35:02.557Z,5.74
2023-01-12T02:37:44.216Z,5.72
2023-01-12T02:40:23.886Z,5.71
2023-01-12T02:43:04.973Z,5.66
2023-01-12T02:45:42.907Z,5.68
2023-01-12T02:48:22.262Z,5.62
2023-01-12T02:50:55.394Z,5.64
2023-01-12T02:53:31.899Z,5.67
2023-01-12T02:56:03.802Z,5.62
2023-01-12T02:58:37.367Z,5.64
2023-01-12T03:01:09.578Z,5.70
2023-01-12T03:03:40.204Z,5.72
2023-01-12T03:06:10.006Z,5.73
2023-01-12T03:08:41.224Z,5.68
2023-01-12T03:11:15.753Z,5.72
2023-01-12T03:13:48.719Z,5.68
2023-01-12T03:16:38.590Z,5.70
2023-01-12T03:19:11.306Z,5.71
2023-01-12T03:21:44.020Z,5.69
2023-01-12T03:24:41.815Z,5.67
2023-01-12T03:30:55.561Z,5.67
2023-01-12T03:33:47.258Z,5.70
2023-01-12T03:36:55.297Z,5.69
2023-01-12T03:39:28.580Z,5.66
2023-01-12T03:42:03.944Z,5.66
2023-01-12T03:44:40.372Z,5.66
2023-01-12T03:47:17.526Z,5.56
2023-01-12T03:49:49.304Z,5.56
2023-01-12T03:52:20.486Z,5.41
2023-01-12T03:54:50.932Z,5.54
2023-01-12T03:57:20.738Z,5.55
2023-01-12T03:59:49.715Z,5.51
2023-01-12T04:02:18.642Z,5.54
2023-01-12T04:04:46.975Z,5.47
2023-01-12T04:07:15.711Z,5.42
2023-01-12T04:09:45.381Z,5.39
2023-01-12T04:12:13.724Z,5.39
2023-01-12T04:14:47.588Z,5.38
2023-01-12T04:17:17.821Z,5.37
2023-01-12T04:23:08.876Z,5.30
2023-01-12T04:25:38.617Z,5.29
2023-01-12T04:28:08.531Z,5.19
2023-01-12T04:30:36.879Z,5.13
2023-01-12T04:33:09.759Z,5.01
2023-01-12T04:35:38.123Z,5.03
2023-01-12T04:38:07.490Z,4.99
2023-01-12T04:40:36.167Z,4.95
2023-01-12T04:43:08.899Z,4.89
2023-01-12T04:45:48.901Z,4.81
2023-01-12T04:48:34.714Z,4.78
2023-01-12T04:54:01.884Z,4.70
2023-01-12T04:56:31.339Z,4.75
2023-01-12T04:59:02.864Z,4.76
2023-01-12T05:01:32.296Z,4.73
2023-01-12T05:04:01.439Z,4.68
2023-01-12T05:06:30.199Z,4.66
2023-01-12T05:09:17.958Z,4.58
2023-01-12T05:11:48.254Z,4.68
2023-01-12T05:14:18.469Z,4.62
2023-01-12T05:16:46.914Z,4.68
2023-01-12T05:19:16.127Z,4.68
2023-01-12T05:21:44.629Z,4.65
2023-01-12T05:24:13.249Z,4.68
2023-01-12T05:26:41.620Z,4.70
2023-01-12T05:29:13.051Z,4.60
2023-01-12T05:31:42.730Z,4.70
2023-01-12T05:34:11.989Z,4.65
2023-01-12T05:36:40.962Z,4.66
2023-01-12T05:42:32.382Z,4.69
2023-01-12T05:45:02.383Z,4.69
2023-01-12T05:47:37.427Z,4.71
2023-01-12T05:50:36.863Z,4.53
2023-01-12T05:53:20.821Z,4.50
2023-01-12T05:56:29.074Z,4.59
2023-01-12T05:59:06.928Z,4.51
2023-01-12T06:01:35.340Z,4.52
2023-01-12T06:04:05.721Z,4.49
2023-01-12T06:06:35.483Z,4.46
2023-01-12T06:09:04.403Z,4.50
2023-01-12T06:11:50.872Z,4.49
2023-01-12T06:14:19.340Z,4.48
2023-01-12T06:16:48.864Z,4.42
2023-01-12T06:19:19.049Z,4.48
2023-01-12T06:21:55.319Z,4.50
2023-01-12T06:24:34.378Z,4.46
2023-01-12T06:27:07.798Z,4.16
2023-01-12T06:29:48.854Z,4.46
2023-01-12T06:32:31.600Z,4.43
2023-01-12T06:35:19.853Z,4.45
2023-01-12T06:38:00.340Z,4.41
2023-01-12T06:40:58.072Z,4.46
2023-01-12T06:43:27.184Z,4.33
2023-01-12T06:46:06.075Z,4.41
2023-01-12T06:48:39.628Z,4.38
2023-01-12T06:54:32.538Z,4.32
2023-01-12T06:57:22.933Z,4.32
2023-01-12T07:00:02.037Z,4.32
2023-01-12T07:02:33.377Z,4.13
2023-01-12T07:05:02.141Z,4.37
2023-01-12T07:07:31.952Z,4.35
2023-01-12T07:10:01.885Z,4.38
2023-01-12T07:12:30.677Z,4.37
2023-01-12T07:14:59.743Z,4.34
2023-01-12T07:17:28.129Z,4.34
2023-01-12T07:19:57.042Z,4.33
2023-01-12T07:22:26.468Z,4.36
2023-01-12T07:24:57.782Z,4.38
2023-01-12T07:27:27.515Z,4.43
2023-01-12T07:29:55.889Z,4.43
2023-01-12T07:32:26.777Z,4.42
2023-01-12T07:34:55.764Z,4.37
2023-01-12T07:37:24.150Z,4.33
2023-01-12T07:39:53.513Z,4.34
2023-01-12T07:42:25.825Z,4.36
2023-01-12T07:44:54.836Z,4.36
2023-01-12T07:47:23.240Z,4.40
2023-01-12T07:49:52.537Z,4.37
2023-01-12T07:52:20.861Z,4.36
2023-01-12T07:54:49.906Z,4.28
2023-01-12T07:57:19.564Z,4.40
2023-01-12T08:00:10.638Z,4.47
2023-01-12T08:02:56.827Z,4.45
2023-01-12T08:05:26.640Z,4.52
2023-01-12T08:07:56.015Z,4.54
2023-01-12T08:10:25.446Z,4.55
2023-01-12T08:12:54.607Z,4.64
2023-01-12T08:15:28.228Z,4.68
2023-01-12T08:18:00.845Z,4.69
2023-01-12T08:20:35.360Z,4.68
2023-01-12T08:23:09.117Z,4.70
2023-01-12T08:25:45.496Z,4.70
2023-01-12T08:28:18.462Z,4.68
2023-01-12T08:30:50.429Z,4.75
2023-01-12T08:33:19.477Z,4.79
2023-01-12T08:35:49.312Z,4.66
2023-01-12T08:38:19.228Z,4.80
2023-01-12T08:41:18.445Z,4.77
2023-01-12T08:44:06.443Z,4.84
2023-01-12T08:46:37.811Z,4.89
2023-01-12T08:49:12.342Z,4.88
2023-01-12T08:51:46.117Z,4.92
2023-01-12T08:54:18.460Z,4.98
2023-01-12T08:56:47.274Z,5.14
2023-01-12T08:59:20.070Z,5.23
2023-01-12T09:01:50.577Z,5.34
2023-01-12T09:05:15.492Z,5.39
2023-01-12T09:08:11.933Z,5.41
2023-01-12T09:10:41.473Z,5.44
2023-01-12T09:13:12.342Z,5.48
2023-01-12T09:15:41.172Z,5.53
2023-01-12T09:18:12.478Z,5.63
2023-01-12T09:20:40.864Z,5.66
2023-01-12T09:23:09.977Z,5.73
2023-01-12T09:25:38.657Z,5.79
2023-01-12T09:28:06.977Z,5.78
2023-01-12T09:30:36.051Z,5.85
2023-01-12T09:33:04.495Z,5.97
2023-01-12T09:35:34.900Z,6.07
2023-01-12T09:38:03.223Z,6.17
2023-01-12T09:40:32.282Z,6.20
2023-01-12T09:43:18.358Z,6.34
2023-01-12T09:46:05.143Z,6.43
2023-01-12T09:48:34.951Z,6.53
2023-01-12T09:51:11.813Z,6.55
2023-01-12T09:53:42.649Z,6.56
2023-01-12T09:56:19.393Z,6.63
2023-01-12T09:59:16.036Z,6.57
2023-01-12T10:02:05.659Z,6.64
2023-01-12T10:05:38.574Z,6.63
2023-01-12T10:13:20.347Z,6.75
2023-01-12T10:16:59.527Z,6.80
2023-01-12T10:32:56.046Z,7.49
2023-01-12T10:39:48.950Z,8.27
2023-01-12T12:28:07.469Z,8.78
2023-01-12T12:31:48.917Z,8.82
2023-01-12T12:44:13.237Z,8.94
2023-01-12T12:51:13.026Z,8.90
2023-01-12T12:53:55.969Z,9.07
2023-01-12T12:56:26.143Z,9.01
2023-01-12T12:58:55.816Z,9.07
2023-01-12T13:01:58.610Z,9.16
2023-01-12T13:07:59.923Z,9.46
2023-01-12T13:10:31.750Z,9.66
2023-01-12T13:13:04.485Z,9.85
2023-01-12T13:15:37.060Z,9.89
2023-01-12T13:18:07.486Z,9.94
2023-01-12T13:20:50.485Z,9.95
2023-01-12T13:23:48.806Z,9.90
2023-01-12T13:26:44.189Z,9.83
2023-01-12T13:29:44.535Z,9.85
2023-01-12T13:32:57.376Z,9.84
2023-01-12T13:35:56.026Z,9.93
2023-01-12T13:38:43.817Z,10.02
2023-01-12T13:41:44.678Z,10.15
2023-01-12T13:44:21.868Z,10.58
2023-01-12T13:46:52.413Z,11.03
2023-01-12T13:49:28.393Z,11.32
2023-01-12T13:52:02.823Z,11.86
2023-01-12T13:54:31.552Z,11.97
2023-01-12T13:57:04.107Z,12.37
2023-01-12T13:59:33.195Z,12.59
2023-01-12T14:02:03.252Z,12.67
2023-01-12T14:04:57.781Z,12.72
2023-01-12T14:07:40.752Z,12.86
2023-01-12T14:10:24.108Z,12.41
2023-01-12T14:13:14.299Z,11.73
2023-01-12T14:16:01.911Z,11.25
2023-01-12T14:18:42.573Z,10.94
2023-01-12T14:21:26.041Z,10.74
2023-01-12T14:23:55.672Z,10.61
2023-01-12T14:26:42.721Z,10.54
2023-01-12T14:29:23.490Z,10.42
2023-01-12T14:31:58.596Z,10.38
2023-01-12T14:34:38.980Z,10.38
2023-01-12T14:37:39.833Z,10.56
2023-01-12T14:40:33.649Z,10.69
2023-01-12T14:43:24.547Z,10.57
2023-01-12T14:46:30.093Z,10.28
2023-01-12T14:49:08.446Z,10.19
2023-01-12T14:51:43.863Z,10.06
2023-01-12T14:54:27.652Z,9.95
2023-01-12T14:57:04.547Z,9.86
2023-01-12T15:12:37.914Z,9.34
2023-01-12T15:15:22.453Z,9.24
2023-01-12T15:18:11.374Z,9.04
2023-01-12T15:25:05.894Z,9.04
2023-01-12T15:27:35.965Z,8.67
2023-01-12T15:30:05.740Z,8.97
2023-01-12T15:39:32.057Z,8.80
2023-01-12T15:42:20.060Z,8.74
2023-01-12T15:44:52.384Z,8.73
2023-01-12T16:00:28.540Z,8.28
2023-01-12T16:26:16.953Z,8.47
2023-01-12T16:51:50.491Z,8.05
2023-01-12T16:55:05.969Z,7.85
2023-01-12T16:58:13.592Z,8.29
2023-01-12T17:09:17.944Z,7.81
2023-01-12T17:15:01.099Z,8.01
2023-01-12T17:17:59.951Z,7.86
2023-01-12T17:20:52.122Z,7.88
2023-01-12T17:24:01.965Z,8.24
2023-01-12T17:30:55.343Z,8.13
2023-01-12T17:33:29.472Z,7.95
2023-01-12T17:53:24.035Z,7.99
2023-01-12T17:55:53.299Z,8.02
2023-01-12T17:58:33.226Z,8.08
2023-01-12T18:01:21.349Z,8.08
2023-01-12T18:03:51.034Z,7.91
2023-01-12T18:14:29.388Z,7.96
2023-01-12T18:17:20.914Z,8.12
2023-01-12T18:19:57.464Z,8.12
2023-01-12T18:22:31.942Z,7.84
2023-01-12T18:25:02.213Z,8.10
2023-01-12T18:27:31.812Z,7.84
2023-01-12T18:31:16.249Z,8.07
2023-01-12T18:34:18.780Z,7.86
2023-01-12T18:36:48.023Z,8.01
2023-01-12T18:39:20.480Z,8.05
2023-01-12T18:42:09.032Z,7.57
2023-01-12T18:45:36.833Z,8.07
2023-01-12T18:48:28.050Z,8.02
2023-01-12T18:51:25.825Z,8.05
2023-01-12T18:54:07.190Z,8.03
2023-01-12T18:57:07.551Z,8.01
2023-01-12T18:59:57.472Z,8.02
2023-01-12T19:02:39.143Z,8.01
2023-01-12T19:06:35.141Z,7.98
2023-01-12T19:13:35.181Z,7.89
2023-01-12T19:23:41.614Z,8.00
2023-01-12T19:27:25.820Z,7.97
2023-01-12T19:38:56.359Z,7.93
2023-01-12T19:54:02.403Z,7.79
2023-01-12T19:57:20.641Z,7.65
2023-01-12T20:05:07.359Z,7.63
2023-01-12T20:11:25.447Z,7.66
2023-01-12T20:24:38.018Z,7.45
2023-01-12T20:28:05.597Z,7.59
2023-01-12T23:04:26.551Z,6.75
2023-01-12T23:08:03.300Z,7.01
2023-01-12T23:18:48.586Z,7.23
2023-01-12T23:38:00.889Z,7.07
